Usurbil, Spain
Current Conditions -  °F | °C
As of 9:30 PM on Thursday 23 Oct 2014 (Local Time) from LESO Reporting Station
Clear Clear  
Wind Chill: 55°   Ceiling: Unl
Heat Index: 55°   Visibility: 6mi
Dew Point: 50°   Wind: 2mph
Humidity: 82%   Direction: NA
Pressure: 30.21"   Gusts: NA
Location:  43.27°N, 2.05°W
Report Text: LESO 231930Z VRB02KT CAVOK 13/10 Q1023
Loading
Personal Weather Stations






























Interactive Weather Map
Tropical Storm Tracking
New forecast layout! Learn more

10-Day Weather Forecast

Advertisements
Track Severe Weather on mobile